createdAt,value
2023-11-17T00:02:45.799Z,79.70
2023-11-17T00:07:49.707Z,79.67
2023-11-17T00:12:53.767Z,79.69
2023-11-17T00:17:57.922Z,79.71
2023-11-17T00:23:01.991Z,79.65
2023-11-17T00:28:06.069Z,80.28
2023-11-17T00:33:10.618Z,80.38
2023-11-17T00:38:15.528Z,80.34
2023-11-17T00:43:20.542Z,80.23
2023-11-17T00:48:24.648Z,80.25
2023-11-17T00:53:31.113Z,80.63
2023-11-17T00:59:24.241Z,80.48
2023-11-17T01:04:28.070Z,80.88
2023-11-17T01:09:32.125Z,80.80
2023-11-17T01:14:36.255Z,81.17
2023-11-17T01:19:42.080Z,81.10
2023-11-17T01:24:46.235Z,80.83
2023-11-17T01:29:50.152Z,81.08
2023-11-17T01:34:58.880Z,80.98
2023-11-17T01:40:02.931Z,81.24
2023-11-17T01:45:10.651Z,81.58
2023-11-17T01:50:16.568Z,81.58
2023-11-17T01:55:21.191Z,81.81
2023-11-17T02:00:25.929Z,81.53
2023-11-17T02:05:30.110Z,81.92
2023-11-17T02:10:48.444Z,82.08
2023-11-17T02:15:57.248Z,82.30
2023-11-17T02:21:02.215Z,81.89
2023-11-17T02:26:19.129Z,82.13
2023-11-17T02:31:31.304Z,82.15
2023-11-17T02:36:35.988Z,82.32
2023-11-17T02:41:44.922Z,82.44
2023-11-17T02:47:00.917Z,82.16
2023-11-17T02:52:22.252Z,83.05
2023-11-17T02:57:28.620Z,82.30
2023-11-17T03:02:32.859Z,83.03
2023-11-17T03:07:39.872Z,82.52
2023-11-17T03:12:43.969Z,82.76
2023-11-17T03:17:47.796Z,82.59
2023-11-17T03:22:51.702Z,83.04
2023-11-17T03:27:56.499Z,82.78
2023-11-17T03:33:00.722Z,83.12
2023-11-17T03:38:04.881Z,82.84
2023-11-17T03:43:08.779Z,83.43
2023-11-17T03:48:12.887Z,83.20
2023-11-17T03:53:17.676Z,83.24
2023-11-17T03:58:21.757Z,83.48
2023-11-17T04:03:26.684Z,83.35
2023-11-17T04:08:30.520Z,83.43
2023-11-17T04:13:38.517Z,83.58
2023-11-17T04:18:43.265Z,83.88
2023-11-17T04:23:47.121Z,83.85
2023-11-17T04:28:51.343Z,83.85
2023-11-17T04:33:56.553Z,83.61
2023-11-17T04:39:01.332Z,83.94
2023-11-17T04:44:08.355Z,83.62
2023-11-17T04:49:14.989Z,83.83
2023-11-17T04:54:18.799Z,83.67
2023-11-17T04:59:23.662Z,83.81
2023-11-17T05:04:27.663Z,83.83
2023-11-17T05:09:32.243Z,83.58
2023-11-17T05:14:38.638Z,83.61
2023-11-17T05:19:42.536Z,83.57
2023-11-17T05:24:46.673Z,82.99
2023-11-17T05:29:50.509Z,83.46
2023-11-17T05:34:55.057Z,83.51
2023-11-17T05:39:59.053Z,83.40
2023-11-17T05:45:04.085Z,83.02
2023-11-17T05:50:13.734Z,82.62
2023-11-17T05:55:19.287Z,82.27
2023-11-17T06:00:23.501Z,81.92
2023-11-17T06:05:27.405Z,81.32
2023-11-17T06:10:31.368Z,81.84
2023-11-17T06:15:36.791Z,81.70
2023-11-17T06:20:41.673Z,81.39
2023-11-17T06:25:45.889Z,81.25
2023-11-17T06:30:49.822Z,81.24
2023-11-17T06:35:54.087Z,80.86
2023-11-17T06:40:58.484Z,81.06
2023-11-17T06:46:03.714Z,81.01
2023-11-17T06:51:10.524Z,80.64
2023-11-17T06:56:14.595Z,80.39
2023-11-17T07:01:21.324Z,80.35
2023-11-17T07:06:29.230Z,80.38
2023-11-17T07:11:34.070Z,79.79
2023-11-17T07:16:43.948Z,79.55
2023-11-17T07:21:52.394Z,79.65
2023-11-17T07:27:00.059Z,79.71
2023-11-17T07:32:06.274Z,79.51
2023-11-17T07:37:10.176Z,79.37
2023-11-17T07:42:15.445Z,79.04
2023-11-17T07:47:20.498Z,79.48
2023-11-17T07:52:25.218Z,79.05
2023-11-17T07:57:29.112Z,78.95
2023-11-17T08:02:33.016Z,79.30
2023-11-17T08:07:37.048Z,78.76
2023-11-17T08:12:41.173Z,79.31
2023-11-17T08:17:45.615Z,78.64
2023-11-17T08:22:50.560Z,79.14
2023-11-17T08:27:55.377Z,78.63
2023-11-17T08:32:59.360Z,78.77
2023-11-17T08:38:03.434Z,78.71
2023-11-17T08:43:07.377Z,78.83
2023-11-17T08:48:11.430Z,78.57
2023-11-17T08:53:15.500Z,78.71
2023-11-17T08:58:19.322Z,78.63
2023-11-17T09:03:23.374Z,78.55
2023-11-17T09:08:27.840Z,79.00
2023-11-17T09:13:31.920Z,78.74
2023-11-17T09:18:37.901Z,78.54
2023-11-17T09:23:41.803Z,78.51
2023-11-17T09:28:45.825Z,78.91
2023-11-17T09:33:49.924Z,79.05
2023-11-17T09:38:55.576Z,78.98
2023-11-17T09:44:00.753Z,78.81
2023-11-17T09:49:07.184Z,78.86
2023-11-17T09:54:15.836Z,78.78
2023-11-17T09:59:19.779Z,79.25
2023-11-17T10:04:27.207Z,79.07
2023-11-17T10:09:32.918Z,79.37
2023-11-17T10:14:39.872Z,79.50
2023-11-17T10:19:44.582Z,79.88
2023-11-17T10:24:48.789Z,79.89
2023-11-17T10:29:52.734Z,79.87
2023-11-17T10:35:26.262Z,79.85
2023-11-17T10:40:33.669Z,80.06
2023-11-17T10:45:49.443Z,80.45
2023-11-17T10:51:07.088Z,80.11
2023-11-17T10:56:29.086Z,80.24
2023-11-17T11:01:36.190Z,80.63
2023-11-17T11:06:40.792Z,80.28
2023-11-17T11:11:52.558Z,80.67
2023-11-17T11:16:57.674Z,80.22
2023-11-17T11:22:03.268Z,80.75
2023-11-17T11:27:09.120Z,80.68
2023-11-17T11:32:15.860Z,80.82
2023-11-17T11:38:00.076Z,81.31
2023-11-17T11:43:05.895Z,81.09
2023-11-17T11:48:10.642Z,80.95
2023-11-17T11:53:14.649Z,81.35
2023-11-17T11:58:18.595Z,80.96
2023-11-17T12:03:26.804Z,81.43
2023-11-17T12:08:33.312Z,81.54
2023-11-17T12:13:55.142Z,81.33
2023-11-17T12:19:07.880Z,81.12
2023-11-17T12:24:25.505Z,81.35
2023-11-17T12:29:35.020Z,81.47
2023-11-17T12:34:44.072Z,81.00
2023-11-17T12:39:49.996Z,81.16
2023-11-17T12:44:55.110Z,81.40
2023-11-17T12:49:59.026Z,81.01
2023-11-17T12:55:09.355Z,81.23
2023-11-17T13:00:23.326Z,81.00
2023-11-17T13:05:28.442Z,81.28
2023-11-17T13:10:32.943Z,81.17
2023-11-17T13:15:37.152Z,81.18
2023-11-17T13:20:41.722Z,80.88
2023-11-17T13:26:05.301Z,80.83
2023-11-17T13:31:24.128Z,81.41
2023-11-17T13:36:37.433Z,81.34
2023-11-17T13:41:46.023Z,81.00
2023-11-17T13:46:51.355Z,81.18
2023-11-17T13:52:03.892Z,81.41
2023-11-17T13:57:09.544Z,81.26
2023-11-17T14:02:13.617Z,81.59
2023-11-17T14:07:17.636Z,81.18
2023-11-17T14:12:23.190Z,81.36
2023-11-17T14:17:28.395Z,81.44
2023-11-17T14:22:32.420Z,81.42
2023-11-17T14:27:36.457Z,81.66
2023-11-17T14:32:40.723Z,81.21
2023-11-17T14:37:46.404Z,81.68
2023-11-17T14:42:53.598Z,81.55
2023-11-17T14:47:58.735Z,81.95
2023-11-17T14:53:02.742Z,82.14
2023-11-17T14:58:10.506Z,82.15
2023-11-17T15:03:15.449Z,81.96
2023-11-17T15:09:00.442Z,82.49
2023-11-17T15:14:06.267Z,82.68
2023-11-17T15:19:14.219Z,82.62
2023-11-17T15:24:26.133Z,82.21
2023-11-17T15:29:32.018Z,82.20
2023-11-17T15:34:37.037Z,82.20
2023-11-17T15:39:43.000Z,81.94
2023-11-17T15:44:47.900Z,82.66
2023-11-17T15:49:51.928Z,82.61
2023-11-17T15:54:57.143Z,82.27
2023-11-17T16:00:01.034Z,82.40
2023-11-17T16:05:07.469Z,82.33
2023-11-17T16:10:24.040Z,82.56
2023-11-17T16:15:28.998Z,82.68
2023-11-17T16:20:33.470Z,82.99
2023-11-17T16:25:39.747Z,82.51
2023-11-17T16:30:43.767Z,83.05
2023-11-17T16:35:48.822Z,82.87
2023-11-17T16:40:54.320Z,83.13
2023-11-17T16:45:58.774Z,83.19
2023-11-17T16:51:04.071Z,83.19
2023-11-17T16:56:09.545Z,82.90
2023-11-17T17:01:16.139Z,83.22
2023-11-17T17:06:20.833Z,83.54
2023-11-17T17:11:25.984Z,82.83
2023-11-17T17:16:32.433Z,83.53
2023-11-17T17:21:36.508Z,83.25
2023-11-17T17:26:41.440Z,83.02
2023-11-17T17:31:45.603Z,83.18
2023-11-17T17:36:49.652Z,83.04
2023-11-17T17:41:53.893Z,83.29
2023-11-17T17:46:59.641Z,83.62
2023-11-17T17:52:03.638Z,83.30
2023-11-17T17:57:09.259Z,83.64
2023-11-17T18:02:13.259Z,83.58
2023-11-17T18:07:19.964Z,83.58
2023-11-17T18:12:25.666Z,83.70
2023-11-17T18:17:30.258Z,83.81
2023-11-17T18:22:36.306Z,83.99
2023-11-17T18:27:41.782Z,83.27
2023-11-17T18:32:46.771Z,83.29
2023-11-17T18:37:52.408Z,83.86
2023-11-17T18:43:01.026Z,83.48
2023-11-17T18:48:05.562Z,83.61
2023-11-17T18:53:10.164Z,83.31
2023-11-17T18:58:14.266Z,83.49
2023-11-17T19:03:18.597Z,83.80
2023-11-17T19:08:22.536Z,83.63
2023-11-17T19:13:26.871Z,83.88
2023-11-17T19:18:32.734Z,84.20
2023-11-17T19:23:36.972Z,84.46
2023-11-17T19:28:41.001Z,83.96
2023-11-17T19:33:45.425Z,84.20
2023-11-17T19:38:49.607Z,84.33
2023-11-17T19:43:53.699Z,84.28
2023-11-17T19:48:57.611Z,84.09
2023-11-17T19:54:01.533Z,84.29
2023-11-17T19:59:06.339Z,84.98
2023-11-17T20:04:14.563Z,84.74
2023-11-17T20:09:26.947Z,84.49
2023-11-17T20:14:30.931Z,84.68
2023-11-17T20:19:35.004Z,84.44
2023-11-17T20:24:39.104Z,85.03
2023-11-17T20:29:44.262Z,84.78
2023-11-17T20:34:48.542Z,84.92
2023-11-17T20:39:52.781Z,85.04
2023-11-17T20:44:57.271Z,85.27
2023-11-17T20:50:02.034Z,84.44
2023-11-17T20:55:07.132Z,84.65
2023-11-17T21:00:12.532Z,84.95
2023-11-17T21:05:16.840Z,84.99
2023-11-17T21:10:23.811Z,85.38
2023-11-17T21:15:28.920Z,85.27
2023-11-17T21:20:35.092Z,85.67
2023-11-17T21:25:40.410Z,84.64
2023-11-17T21:30:44.378Z,85.18
2023-11-17T21:35:48.733Z,84.75
2023-11-17T21:40:58.270Z,85.26
2023-11-17T21:46:03.866Z,85.54
2023-11-17T21:51:12.181Z,84.76
2023-11-17T21:56:22.120Z,84.90
2023-11-17T22:01:26.353Z,85.04
2023-11-17T22:06:30.274Z,85.52
2023-11-17T22:11:35.636Z,84.96
2023-11-17T22:16:39.425Z,85.38
2023-11-17T22:21:43.474Z,84.69
2023-11-17T22:26:48.456Z,85.35
2023-11-17T22:31:52.292Z,84.60
2023-11-17T22:36:59.065Z,85.01
2023-11-17T22:42:02.866Z,84.84
2023-11-17T22:47:07.005Z,85.27
2023-11-17T22:52:10.976Z,85.31
2023-11-17T22:57:14.821Z,84.92
2023-11-17T23:02:20.406Z,84.60
2023-11-17T23:07:27.993Z,84.84
2023-11-17T23:12:31.981Z,84.66
2023-11-17T23:17:36.307Z,85.21
2023-11-17T23:22:41.761Z,85.12
2023-11-17T23:27:45.894Z,85.29
2023-11-17T23:32:50.101Z,85.35
2023-11-17T23:37:54.761Z,85.94
2023-11-17T23:42:58.822Z,85.94
2023-11-17T23:48:04.200Z,86.01
2023-11-17T23:53:09.644Z,86.31
2023-11-17T23:58:14.155Z,86.43
